createdAt,value
2023-02-02T00:01:51.308Z,4.40
2023-02-02T00:04:24.992Z,3.40
2023-02-02T00:06:54.909Z,3.40
2023-02-02T00:09:26.403Z,2.40
2023-02-02T00:12:00.479Z,2.07
2023-02-02T00:14:30.535Z,2.93
2023-02-02T00:17:03.822Z,2.10
2023-02-02T00:19:33.617Z,2.13
2023-02-02T00:22:04.045Z,2.20
2023-02-02T00:24:35.733Z,1.77
2023-02-02T00:30:18.592Z,2.37
2023-02-02T00:32:48.919Z,2.57
2023-02-02T00:35:17.974Z,1.93
2023-02-02T00:38:11.113Z,2.67
2023-02-02T00:40:45.668Z,2.40
2023-02-02T00:43:16.298Z,2.03
2023-02-02T00:45:45.511Z,2.00
2023-02-02T00:48:16.090Z,2.40
2023-02-02T00:50:45.091Z,2.43
2023-02-02T00:53:14.053Z,2.10
2023-02-02T00:55:47.887Z,2.07
2023-02-02T00:58:18.510Z,2.90
2023-02-02T01:00:49.720Z,2.90
2023-02-02T01:03:18.775Z,2.20
2023-02-02T01:05:48.035Z,2.43
2023-02-02T01:08:17.007Z,2.23
2023-02-02T01:10:45.804Z,2.37
2023-02-02T01:13:17.076Z,2.53
2023-02-02T01:15:47.571Z,2.20
2023-02-02T01:18:19.758Z,2.27
2023-02-02T01:20:48.655Z,3.60
2023-02-02T01:23:17.562Z,5.13
2023-02-02T01:25:47.367Z,5.27
2023-02-02T01:28:16.280Z,5.93
2023-02-02T01:30:45.236Z,6.87
2023-02-02T01:33:15.187Z,6.67
2023-02-02T01:36:00.602Z,8.07
2023-02-02T01:38:27.343Z,6.83
2023-02-02T01:40:57.871Z,6.50
2023-02-02T01:43:34.133Z,6.27
2023-02-02T01:46:04.697Z,5.80
2023-02-02T01:48:36.279Z,4.93
2023-02-02T01:51:09.808Z,5.43
2023-02-02T01:53:44.995Z,5.03
2023-02-02T01:56:14.599Z,4.00
2023-02-02T01:58:45.189Z,3.90
2023-02-02T02:01:15.478Z,3.70
2023-02-02T02:03:44.706Z,3.83
2023-02-02T02:06:18.749Z,4.10
2023-02-02T02:09:03.856Z,4.43
2023-02-02T02:11:34.279Z,3.97
2023-02-02T02:14:24.863Z,3.60
2023-02-02T02:17:15.490Z,3.57
2023-02-02T02:20:41.360Z,4.00
2023-02-02T02:23:50.393Z,4.07
2023-02-02T02:26:40.247Z,3.80
2023-02-02T02:29:39.521Z,3.27
2023-02-02T02:32:27.802Z,3.03
2023-02-02T02:35:26.664Z,3.13
2023-02-02T02:37:58.664Z,3.40
2023-02-02T02:40:36.602Z,3.23
2023-02-02T02:43:11.045Z,3.73
2023-02-02T02:45:42.864Z,3.10
2023-02-02T02:48:13.018Z,3.40
2023-02-02T02:50:42.356Z,3.50
2023-02-02T02:53:17.114Z,3.53
2023-02-02T02:55:58.209Z,3.20
2023-02-02T02:58:30.287Z,3.60
2023-02-02T03:01:11.238Z,3.77
2023-02-02T03:03:49.096Z,3.33
2023-02-02T03:06:39.324Z,3.50
2023-02-02T03:09:11.220Z,3.40
2023-02-02T03:11:40.324Z,2.93
2023-02-02T03:14:18.419Z,3.23
2023-02-02T03:16:59.369Z,2.83
2023-02-02T03:19:44.040Z,2.87
2023-02-02T03:22:14.977Z,2.63
2023-02-02T03:27:52.679Z,2.90
2023-02-02T03:31:34.321Z,3.33
2023-02-02T03:35:13.065Z,3.00
2023-02-02T03:37:03.444Z,3.73
2023-02-02T03:39:39.664Z,3.77
2023-02-02T03:45:41.151Z,3.60
2023-02-02T03:48:14.901Z,3.67
2023-02-02T03:50:55.706Z,3.80
2023-02-02T03:53:30.576Z,4.03
2023-02-02T03:58:51.410Z,3.77
2023-02-02T04:05:41.992Z,4.30
2023-02-02T04:08:41.804Z,4.77
2023-02-02T04:11:19.700Z,5.40
2023-02-02T04:13:58.057Z,5.40
2023-02-02T04:19:33.255Z,5.17
2023-02-02T04:22:13.018Z,5.00
2023-02-02T04:25:03.814Z,4.63
2023-02-02T04:30:51.440Z,4.17
2023-02-02T04:33:42.016Z,4.07
2023-02-02T04:36:24.210Z,4.13
2023-02-02T04:42:13.757Z,4.10
2023-02-02T04:48:12.582Z,3.63
2023-02-02T05:00:50.954Z,4.30
2023-02-02T05:06:20.039Z,4.73
2023-02-02T05:12:12.635Z,4.97
2023-02-02T05:24:32.816Z,5.10
2023-02-02T05:27:31.617Z,5.33
2023-02-02T05:29:52.065Z,5.90
2023-02-02T05:32:44.545Z,4.77
2023-02-02T05:35:23.142Z,5.07
2023-02-02T05:38:39.001Z,4.70
2023-02-02T05:50:20.228Z,5.13
2023-02-02T05:59:18.683Z,5.37
2023-02-02T06:02:21.693Z,5.67
2023-02-02T06:33:14.951Z,7.67
2023-02-02T06:38:38.279Z,6.80
2023-02-02T06:43:24.752Z,6.97
2023-02-02T06:50:15.636Z,7.67
2023-02-02T06:52:58.311Z,8.03
2023-02-02T06:55:27.482Z,9.27
2023-02-02T06:58:00.264Z,8.30
2023-02-02T07:00:30.865Z,7.70
2023-02-02T07:03:01.284Z,8.90
2023-02-02T07:05:30.863Z,8.97
2023-02-02T07:07:59.735Z,9.97
2023-02-02T07:11:14.156Z,9.20
2023-02-02T07:13:06.151Z,9.67
2023-02-02T07:15:38.495Z,11.40
2023-02-02T07:18:09.341Z,12.43
2023-02-02T07:20:38.491Z,13.00
2023-02-02T07:23:08.823Z,14.07
2023-02-02T07:25:48.358Z,12.53
2023-02-02T07:28:17.398Z,12.20
2023-02-02T07:30:59.533Z,23.60
2023-02-02T07:33:28.854Z,13.63
2023-02-02T07:36:04.598Z,11.93
2023-02-02T07:38:37.808Z,10.70
2023-02-02T07:48:09.579Z,10.00
2023-02-02T07:50:46.002Z,10.03
2023-02-02T07:59:13.105Z,9.10
2023-02-02T08:01:53.958Z,9.40
2023-02-02T08:04:24.475Z,9.87
2023-02-02T08:07:00.256Z,9.67
2023-02-02T08:09:45.114Z,9.30
2023-02-02T08:22:49.467Z,11.97
2023-02-02T09:03:07.898Z,4.07
2023-02-02T09:49:25.946Z,7.60
2023-02-02T09:54:46.984Z,30.40
2023-02-02T10:05:45.584Z,5.33
2023-02-02T10:31:37.658Z,4.40
2023-02-02T10:33:58.391Z,14.97
2023-02-02T10:36:41.111Z,3.33
2023-02-02T10:39:13.468Z,2.33
2023-02-02T10:42:11.090Z,2.90
2023-02-02T10:44:47.346Z,2.40
2023-02-02T10:47:26.754Z,3.17
2023-02-02T10:53:09.449Z,2.50
2023-02-02T10:55:53.761Z,2.07
2023-02-02T10:58:32.978Z,2.80
2023-02-02T11:01:07.079Z,2.40
2023-02-02T11:03:45.432Z,2.80
2023-02-02T11:06:34.129Z,3.00
2023-02-02T11:09:06.429Z,2.80
2023-02-02T11:11:45.332Z,2.37
2023-02-02T11:14:20.747Z,2.30
2023-02-02T11:16:52.713Z,2.20
2023-02-02T11:19:26.469Z,2.40
2023-02-02T11:22:06.052Z,2.63
2023-02-02T11:24:50.121Z,2.30
2023-02-02T11:27:37.111Z,3.13
2023-02-02T11:30:23.406Z,2.70
2023-02-02T11:32:52.877Z,2.40
2023-02-02T11:35:27.321Z,2.30
2023-02-02T11:38:09.272Z,2.43
2023-02-02T11:40:49.371Z,2.67
2023-02-02T11:43:35.079Z,2.60
2023-02-02T11:46:06.888Z,2.30
2023-02-02T11:48:38.826Z,2.10
2023-02-02T11:51:09.369Z,2.00
2023-02-02T11:53:49.904Z,2.27
2023-02-02T11:56:25.625Z,2.30
2023-02-02T12:05:47.525Z,2.87
2023-02-02T12:14:26.334Z,2.23
2023-02-02T12:18:57.009Z,3.00
2023-02-02T12:21:47.137Z,2.90
2023-02-02T12:24:43.823Z,2.80
2023-02-02T12:27:39.716Z,3.70
2023-02-02T12:30:21.767Z,2.37
2023-02-02T12:33:21.163Z,2.87
2023-02-02T12:36:13.125Z,2.10
2023-02-02T12:38:55.978Z,1.90
2023-02-02T12:41:43.445Z,2.10
2023-02-02T12:44:18.383Z,2.33
2023-02-02T12:50:39.379Z,1.30
2023-02-02T12:53:14.260Z,1.93
2023-02-02T12:56:13.253Z,1.87
2023-02-02T12:59:01.785Z,1.80
2023-02-02T13:01:49.145Z,1.80
2023-02-02T13:04:58.448Z,1.60
2023-02-02T13:07:39.253Z,1.97
2023-02-02T13:13:38.164Z,1.90
2023-02-02T13:16:26.006Z,1.97
2023-02-02T13:19:28.033Z,1.87
2023-02-02T13:22:00.124Z,2.93
2023-02-02T13:24:39.310Z,1.57
2023-02-02T13:58:02.757Z,1.50
2023-02-02T14:00:47.799Z,1.80
2023-02-02T14:06:17.729Z,2.00
2023-02-02T14:08:55.450Z,1.90
2023-02-02T14:11:39.538Z,1.57
2023-02-02T14:14:29.031Z,2.10
2023-02-02T14:16:58.025Z,1.70
2023-02-02T14:19:41.710Z,1.87
2023-02-02T14:22:17.001Z,1.90
2023-02-02T14:25:44.538Z,1.90
2023-02-02T14:28:16.262Z,1.60
2023-02-02T14:30:45.429Z,1.50
2023-02-02T14:33:39.971Z,1.70
2023-02-02T14:39:15.353Z,1.90
2023-02-02T14:42:07.506Z,2.00
2023-02-02T14:44:37.804Z,2.17
2023-02-02T14:47:09.380Z,3.17
2023-02-02T14:49:39.591Z,2.93
2023-02-02T14:52:13.604Z,2.60
2023-02-02T14:54:45.991Z,3.70
2023-02-02T14:57:31.185Z,4.23
2023-02-02T15:00:01.847Z,5.03
2023-02-02T15:02:39.117Z,4.23
2023-02-02T15:15:44.701Z,3.50
2023-02-02T15:18:22.081Z,4.00
2023-02-02T15:20:53.398Z,3.03
2023-02-02T15:23:43.714Z,1.73
2023-02-02T15:26:32.740Z,1.67
2023-02-02T15:29:17.467Z,1.93
2023-02-02T15:31:54.151Z,1.83
2023-02-02T15:34:36.693Z,2.33
2023-02-02T15:37:09.567Z,1.90
2023-02-02T15:39:50.560Z,2.07
2023-02-02T15:42:51.260Z,1.97
2023-02-02T15:45:42.427Z,1.30
2023-02-02T15:48:25.097Z,2.63
2023-02-02T15:50:58.555Z,3.10
2023-02-02T15:53:52.078Z,3.93
2023-02-02T16:00:44.806Z,2.87
2023-02-02T16:09:57.473Z,2.63
2023-02-02T16:12:29.178Z,2.30
2023-02-02T16:15:05.702Z,2.57
2023-02-02T16:17:48.215Z,2.20
2023-02-02T16:20:18.543Z,2.27
2023-02-02T16:22:51.238Z,2.30
2023-02-02T16:25:23.783Z,2.47
2023-02-02T16:27:55.145Z,2.50
2023-02-02T16:30:34.855Z,1.70
2023-02-02T16:33:32.518Z,2.30
2023-02-02T16:36:07.941Z,2.87
2023-02-02T16:38:40.954Z,2.63
2023-02-02T16:53:39.490Z,2.73
2023-02-02T16:59:43.921Z,3.57
2023-02-02T17:02:35.411Z,3.70
2023-02-02T17:22:18.314Z,2.77
2023-02-02T17:32:03.193Z,3.30
2023-02-02T17:34:31.842Z,2.93
2023-02-02T17:37:13.407Z,3.40
2023-02-02T17:40:18.254Z,2.53
2023-02-02T17:46:38.306Z,3.73
2023-02-02T18:33:34.967Z,2.70
2023-02-02T18:48:59.197Z,3.13
2023-02-02T18:51:54.147Z,3.87
2023-02-02T18:54:26.124Z,3.03
2023-02-02T19:00:25.956Z,2.93
2023-02-02T19:02:54.657Z,3.00
2023-02-02T19:05:41.316Z,3.23
2023-02-02T19:08:10.049Z,2.90
2023-02-02T19:10:40.407Z,3.20
2023-02-02T19:13:22.214Z,3.77
2023-02-02T19:15:55.493Z,2.90
2023-02-02T19:18:36.429Z,3.67
2023-02-02T19:21:17.636Z,2.67
2023-02-02T19:26:37.660Z,2.80
2023-02-02T19:29:10.724Z,3.97
2023-02-02T19:31:41.648Z,3.13
2023-02-02T19:37:45.724Z,2.70
2023-02-02T20:52:32.459Z,3.70
2023-02-02T20:58:01.219Z,3.33
2023-02-02T21:00:37.156Z,2.93
2023-02-02T21:08:53.645Z,3.10
2023-02-02T21:09:45.414Z,3.53
2023-02-02T21:12:18.797Z,3.80
2023-02-02T21:15:01.291Z,3.70
2023-02-02T21:17:37.384Z,4.20
2023-02-02T21:24:05.691Z,4.73
2023-02-02T21:36:43.796Z,3.63
2023-02-02T21:39:42.686Z,4.60
2023-02-02T21:42:27.970Z,4.67
2023-02-02T21:52:30.141Z,3.77
2023-02-02T22:01:34.125Z,3.73
2023-02-02T22:04:36.346Z,3.30
2023-02-02T22:07:31.034Z,3.40
2023-02-02T22:10:36.046Z,3.30
2023-02-02T22:13:28.461Z,3.40
2023-02-02T22:16:15.071Z,3.47
2023-02-02T22:21:55.573Z,3.60
2023-02-02T22:24:34.691Z,4.97
2023-02-02T22:27:09.164Z,4.90
2023-02-02T22:29:43.610Z,4.00
2023-02-02T22:32:29.746Z,3.83
2023-02-02T22:38:24.981Z,3.40
2023-02-02T22:41:00.963Z,3.10
2023-02-02T22:43:40.398Z,3.60
2023-02-02T22:50:04.264Z,2.47
2023-02-02T22:52:42.997Z,4.17
2023-02-02T22:55:41.663Z,3.00
2023-02-02T22:58:12.171Z,3.37
2023-02-02T23:04:25.759Z,3.10
2023-02-02T23:07:00.687Z,2.93
2023-02-02T23:13:07.629Z,3.13
2023-02-02T23:15:38.569Z,3.23
2023-02-02T23:21:50.520Z,3.13
2023-02-02T23:24:44.349Z,3.10
2023-02-02T23:27:04.687Z,3.73
2023-02-02T23:29:36.459Z,3.33
2023-02-02T23:32:14.078Z,3.30
2023-02-02T23:34:50.590Z,3.57
2023-02-02T23:37:26.731Z,4.10
2023-02-02T23:40:03.735Z,3.83
2023-02-02T23:46:42.892Z,2.60
2023-02-02T23:49:21.093Z,2.83
2023-02-02T23:51:50.167Z,3.13
2023-02-02T23:54:23.375Z,3.13
2023-02-02T23:57:00.128Z,2.97
2023-02-02T23:59:28.900Z,2.90
